createdAt,value
2022-09-12T00:00:12.189Z,15.00
2022-09-12T00:01:12.247Z,15.03
2022-09-12T00:02:12.204Z,15.07
2022-09-12T00:03:12.164Z,15.05
2022-09-12T00:04:12.194Z,15.04
2022-09-12T00:05:12.144Z,14.98
2022-09-12T00:06:12.133Z,14.94
2022-09-12T00:07:12.124Z,14.93
2022-09-12T00:08:12.113Z,14.87
2022-09-12T00:09:12.105Z,14.86
2022-09-12T00:10:12.094Z,14.85
2022-09-12T00:11:12.088Z,14.80
2022-09-12T00:12:12.175Z,14.90
2022-09-12T00:13:12.066Z,14.94
2022-09-12T00:14:12.055Z,14.91
2022-09-12T00:15:12.047Z,14.85
2022-09-12T00:16:12.067Z,14.80
2022-09-12T00:17:12.028Z,14.83
2022-09-12T00:18:12.017Z,14.82
2022-09-12T00:19:12.009Z,14.86
2022-09-12T00:20:12.030Z,14.85
2022-09-12T00:21:11.990Z,14.72
2022-09-12T00:22:11.980Z,14.72
2022-09-12T00:23:11.970Z,14.74
2022-09-12T00:24:11.958Z,14.69
2022-09-12T00:25:11.951Z,14.72
2022-09-12T00:26:11.946Z,14.71
2022-09-12T00:27:11.930Z,14.85
2022-09-12T00:28:11.919Z,14.74
2022-09-12T00:29:11.914Z,14.74
2022-09-12T00:30:11.900Z,14.78
2022-09-12T00:31:12.067Z,14.72
2022-09-12T00:32:11.879Z,14.72
2022-09-12T00:33:11.874Z,14.83
2022-09-12T00:34:11.861Z,14.78
2022-09-12T00:35:11.853Z,14.69
2022-09-12T00:36:11.863Z,14.71
2022-09-12T00:37:11.836Z,14.64
2022-09-12T00:38:11.822Z,14.63
2022-09-12T00:39:11.814Z,14.64
2022-09-12T00:40:11.832Z,14.59
2022-09-12T00:41:11.794Z,14.53
2022-09-12T00:42:11.783Z,14.57
2022-09-12T00:43:11.774Z,14.61
2022-09-12T00:44:11.764Z,14.60
2022-09-12T00:45:11.756Z,14.61
2022-09-12T00:46:11.743Z,14.63
2022-09-12T00:47:11.736Z,14.56
2022-09-12T00:48:11.724Z,14.56
2022-09-12T00:49:11.717Z,14.54
2022-09-12T00:50:11.704Z,14.56
2022-09-12T00:51:11.697Z,14.53
2022-09-12T00:52:11.703Z,14.56
2022-09-12T00:53:11.676Z,14.61
2022-09-12T00:54:11.666Z,14.59
2022-09-12T00:55:11.656Z,14.53
2022-09-12T00:56:11.645Z,14.53
2022-09-12T00:57:11.638Z,14.59
2022-09-12T00:58:11.625Z,14.52
2022-09-12T00:59:11.617Z,14.56
2022-09-12T01:00:11.606Z,14.56
2022-09-12T01:01:11.721Z,14.52
2022-09-12T01:02:11.697Z,14.52
2022-09-12T01:03:11.576Z,14.53
2022-09-12T01:04:11.567Z,14.53
2022-09-12T01:05:11.556Z,14.54
2022-09-12T01:06:11.546Z,14.44
2022-09-12T01:07:11.537Z,14.41
2022-09-12T01:08:11.549Z,14.42
2022-09-12T01:09:11.517Z,14.41
2022-09-12T01:10:11.514Z,14.46
2022-09-12T01:11:11.525Z,14.45
2022-09-12T01:12:11.499Z,14.45
2022-09-12T01:13:11.480Z,14.44
2022-09-12T01:14:11.466Z,14.35
2022-09-12T01:15:11.456Z,14.39
2022-09-12T01:16:11.494Z,14.39
2022-09-12T01:17:11.438Z,14.42
2022-09-12T01:18:11.427Z,14.42
2022-09-12T01:19:11.416Z,14.34
2022-09-12T01:20:11.405Z,14.42
2022-09-12T01:21:11.396Z,14.30
2022-09-12T01:22:11.386Z,14.27
2022-09-12T01:23:11.376Z,14.38
2022-09-12T01:24:11.385Z,14.42
2022-09-12T01:25:11.359Z,14.30
2022-09-12T01:26:11.345Z,14.29
2022-09-12T01:27:11.337Z,14.27
2022-09-12T01:28:11.325Z,14.31
2022-09-12T01:29:11.317Z,14.38
2022-09-12T01:30:11.306Z,14.35
2022-09-12T01:31:11.297Z,14.38
2022-09-12T01:32:11.338Z,14.29
2022-09-12T01:33:11.276Z,14.30
2022-09-12T01:34:11.266Z,14.31
2022-09-12T01:35:11.255Z,14.31
2022-09-12T01:36:11.244Z,14.35
2022-09-12T01:37:11.238Z,14.26
2022-09-12T01:38:11.224Z,14.20
2022-09-12T01:39:11.216Z,14.19
2022-09-12T01:40:11.304Z,14.21
2022-09-12T01:41:11.223Z,14.23
2022-09-12T01:42:11.186Z,14.17
2022-09-12T01:43:11.175Z,14.20
2022-09-12T01:44:11.164Z,14.13
2022-09-12T01:45:11.158Z,14.16
2022-09-12T01:46:11.171Z,14.20
2022-09-12T01:47:11.135Z,14.23
2022-09-12T01:48:11.126Z,14.19
2022-09-12T01:49:11.115Z,14.17
2022-09-12T01:50:11.102Z,14.24
2022-09-12T01:51:11.094Z,14.24
2022-09-12T01:52:11.083Z,14.19
2022-09-12T01:53:11.075Z,14.12
2022-09-12T01:54:11.062Z,14.27
2022-09-12T01:55:11.053Z,14.20
2022-09-12T01:56:11.060Z,14.17
2022-09-12T01:57:11.036Z,14.17
2022-09-12T01:58:11.027Z,14.13
2022-09-12T01:59:11.013Z,14.12
2022-09-12T02:00:11.001Z,14.13
2022-09-12T02:01:11.067Z,14.19
2022-09-12T02:02:11.018Z,14.19
2022-09-12T02:03:10.971Z,14.12
2022-09-12T02:04:10.960Z,14.09
2022-09-12T02:05:10.952Z,14.17
2022-09-12T02:06:10.940Z,14.24
2022-09-12T02:07:10.929Z,14.16
2022-09-12T02:08:10.918Z,14.05
2022-09-12T02:09:10.912Z,14.20
2022-09-12T02:10:10.898Z,14.04
2022-09-12T02:11:10.890Z,14.11
2022-09-12T02:12:10.897Z,14.11
2022-09-12T02:13:10.869Z,14.09
2022-09-12T02:14:10.860Z,14.02
2022-09-12T02:15:10.849Z,13.98
2022-09-12T02:16:10.931Z,13.93
2022-09-12T02:17:10.827Z,14.02
2022-09-12T02:18:10.817Z,14.01
2022-09-12T02:19:10.808Z,13.98
2022-09-12T02:20:21.151Z,13.94
2022-09-12T02:21:10.786Z,13.93
2022-09-12T02:22:10.778Z,13.94
2022-09-12T02:23:10.765Z,13.99
2022-09-12T02:24:10.754Z,13.96
2022-09-12T02:25:10.746Z,13.93
2022-09-12T02:26:10.737Z,13.87
2022-09-12T02:27:10.725Z,13.88
2022-09-12T02:28:10.731Z,13.88
2022-09-12T02:29:10.703Z,13.80
2022-09-12T02:30:10.705Z,13.79
2022-09-12T02:31:10.687Z,13.81
2022-09-12T02:32:10.671Z,13.76
2022-09-12T02:33:10.667Z,13.81
2022-09-12T02:34:10.657Z,13.79
2022-09-12T02:35:10.642Z,13.75
2022-09-12T02:36:10.631Z,13.75
2022-09-12T02:37:10.623Z,13.75
2022-09-12T02:38:10.611Z,13.76
2022-09-12T02:39:10.602Z,13.76
2022-09-12T02:40:10.623Z,13.79
2022-09-12T02:41:10.581Z,13.79
2022-09-12T02:42:10.568Z,13.76
2022-09-12T02:43:10.562Z,13.83
2022-09-12T02:44:10.565Z,13.73
2022-09-12T02:45:10.539Z,13.86
2022-09-12T02:46:10.594Z,13.79
2022-09-12T02:47:10.518Z,13.80
2022-09-12T02:48:12.817Z,13.80
2022-09-12T02:49:10.495Z,13.86
2022-09-12T02:50:10.488Z,13.83
2022-09-12T02:51:10.475Z,13.75
2022-09-12T02:52:10.467Z,13.75
2022-09-12T02:53:10.453Z,13.66
2022-09-12T02:54:10.448Z,13.76
2022-09-12T02:55:10.433Z,13.91
2022-09-12T02:56:10.423Z,13.99
2022-09-12T02:57:10.412Z,13.96
2022-09-12T02:58:10.403Z,13.94
2022-09-12T02:59:10.391Z,13.87
2022-09-12T03:00:10.402Z,13.93
2022-09-12T03:01:10.408Z,13.87
2022-09-12T03:02:10.388Z,13.81
2022-09-12T03:03:10.348Z,13.80
2022-09-12T03:04:10.339Z,13.76
2022-09-12T03:05:10.331Z,13.73
2022-09-12T03:06:10.320Z,13.76
2022-09-12T03:07:10.307Z,13.79
2022-09-12T03:08:10.299Z,13.81
2022-09-12T03:09:10.287Z,13.80
2022-09-12T03:10:10.278Z,13.79
2022-09-12T03:11:10.275Z,13.80
2022-09-12T03:12:10.257Z,13.73
2022-09-12T03:13:10.244Z,13.75
2022-09-12T03:14:10.238Z,13.66
2022-09-12T03:15:10.233Z,13.59
2022-09-12T03:16:10.288Z,13.72
2022-09-12T03:17:10.202Z,13.72
2022-09-12T03:18:10.194Z,13.71
2022-09-12T03:19:10.179Z,13.62
2022-09-12T03:20:10.173Z,13.66
2022-09-12T03:21:10.161Z,13.65
2022-09-12T03:22:10.154Z,13.79
2022-09-12T03:23:10.138Z,13.75
2022-09-12T03:24:10.129Z,13.65
2022-09-12T03:25:10.121Z,13.69
2022-09-12T03:26:10.108Z,13.53
2022-09-12T03:27:10.095Z,13.66
2022-09-12T03:28:10.088Z,13.71
2022-09-12T03:29:10.074Z,13.66
2022-09-12T03:30:10.067Z,13.65
2022-09-12T03:31:10.052Z,13.66
2022-09-12T03:32:10.064Z,13.63
2022-09-12T03:33:10.032Z,13.69
2022-09-12T03:34:10.025Z,13.66
2022-09-12T03:35:10.011Z,13.55
2022-09-12T03:36:10.002Z,13.71
2022-09-12T03:37:09.990Z,13.65
2022-09-12T03:38:09.985Z,13.66
2022-09-12T03:39:09.968Z,13.61
2022-09-12T03:40:10.011Z,13.53
2022-09-12T03:41:09.948Z,13.53
2022-09-12T03:42:09.939Z,13.54
2022-09-12T03:43:09.925Z,13.50
2022-09-12T03:44:09.916Z,13.50
2022-09-12T03:45:09.905Z,13.66
2022-09-12T03:46:09.974Z,13.71
2022-09-12T03:47:11.436Z,13.66
2022-09-12T03:48:09.893Z,13.65
2022-09-12T03:49:09.862Z,13.61
2022-09-12T03:50:09.854Z,13.51
2022-09-12T03:51:09.843Z,13.54
2022-09-12T03:52:09.831Z,13.57
2022-09-12T03:53:12.092Z,13.62
2022-09-12T03:54:09.811Z,13.59
2022-09-12T03:55:09.799Z,13.51
2022-09-12T03:56:09.790Z,13.66
2022-09-12T03:57:09.777Z,13.65
2022-09-12T03:58:09.773Z,13.63
2022-09-12T03:59:09.756Z,13.61
2022-09-12T04:00:09.749Z,13.55
2022-09-12T04:01:09.750Z,13.63
2022-09-12T04:02:09.779Z,13.50
2022-09-12T04:03:09.713Z,13.55
2022-09-12T04:04:09.723Z,13.50
2022-09-12T04:05:09.693Z,13.46
2022-09-12T04:06:09.683Z,13.53
2022-09-12T04:07:09.671Z,13.50
2022-09-12T04:08:09.663Z,13.57
2022-09-12T04:09:09.650Z,13.39
2022-09-12T04:10:09.881Z,13.51
2022-09-12T04:11:09.639Z,13.44
2022-09-12T04:12:09.620Z,13.54
2022-09-12T04:13:09.607Z,13.54
2022-09-12T04:14:09.599Z,13.61
2022-09-12T04:15:09.586Z,13.62
2022-09-12T04:17:09.567Z,13.72
2022-09-12T04:18:09.554Z,13.63
2022-09-12T04:19:09.545Z,13.76
2022-09-12T04:20:09.552Z,13.75
2022-09-12T04:21:09.525Z,13.76
2022-09-12T04:22:09.513Z,13.71
2022-09-12T04:23:09.502Z,13.68
2022-09-12T04:24:09.491Z,13.72
2022-09-12T04:26:09.472Z,13.63
2022-09-12T04:27:09.457Z,13.73
2022-09-12T04:28:09.449Z,13.65
2022-09-12T04:29:09.436Z,13.71
2022-09-12T04:30:09.429Z,13.66
2022-09-12T04:31:09.416Z,13.65
2022-09-12T04:32:09.407Z,13.71
2022-09-12T04:33:09.394Z,13.65
2022-09-12T04:34:09.387Z,13.63
2022-09-12T04:35:09.372Z,13.55
2022-09-12T04:36:09.382Z,13.61
2022-09-12T04:37:09.353Z,13.57
2022-09-12T04:39:09.332Z,13.53
2022-09-12T04:40:09.419Z,13.51
2022-09-12T04:41:09.324Z,13.53
2022-09-12T04:42:09.318Z,13.57
2022-09-12T04:43:14.208Z,13.50
2022-09-12T04:44:09.296Z,13.50
2022-09-12T04:45:09.269Z,13.47
2022-09-12T04:46:09.326Z,13.48
2022-09-12T04:47:09.247Z,13.48
2022-09-12T04:48:09.235Z,13.57
2022-09-12T04:49:09.228Z,13.54
2022-09-12T04:50:09.216Z,13.63
2022-09-12T04:51:09.207Z,13.62
2022-09-12T04:52:09.209Z,13.53
2022-09-12T04:53:09.184Z,13.53
2022-09-12T04:54:09.170Z,13.50
2022-09-12T04:55:09.162Z,13.53
2022-09-12T04:56:09.149Z,13.43
2022-09-12T04:57:09.141Z,13.43
2022-09-12T04:58:09.129Z,13.48
2022-09-12T04:59:09.119Z,13.48
2022-09-12T05:00:09.106Z,13.62
2022-09-12T05:01:09.130Z,13.69
2022-09-12T05:02:09.142Z,13.69
2022-09-12T05:03:09.077Z,13.69
2022-09-12T05:04:09.267Z,13.68
2022-09-12T05:05:09.057Z,13.69
2022-09-12T05:06:09.043Z,13.71
2022-09-12T05:07:09.032Z,13.73
2022-09-12T05:09:09.029Z,13.72
2022-09-12T05:10:09.001Z,13.59
2022-09-12T05:11:08.988Z,13.68
2022-09-12T05:12:08.980Z,13.71
2022-09-12T05:13:08.968Z,13.65
2022-09-12T05:14:08.958Z,13.59
2022-09-12T05:15:08.945Z,13.62
2022-09-12T05:16:08.991Z,13.59
2022-09-12T05:17:09.024Z,13.61
2022-09-12T05:18:08.920Z,13.61
2022-09-12T05:19:08.903Z,13.62
2022-09-12T05:20:08.894Z,13.62
2022-09-12T05:21:08.882Z,13.63
2022-09-12T05:22:08.879Z,13.57
2022-09-12T05:23:08.860Z,13.61
2022-09-12T05:24:08.851Z,13.62
2022-09-12T05:25:08.860Z,13.63
2022-09-12T05:26:08.831Z,13.62
2022-09-12T05:27:08.819Z,13.66
2022-09-12T05:28:08.813Z,13.59
2022-09-12T05:29:08.999Z,13.61
2022-09-12T05:30:08.791Z,13.65
2022-09-12T05:31:08.775Z,13.66
2022-09-12T05:32:08.767Z,13.59
2022-09-12T05:33:08.754Z,13.72
2022-09-12T05:34:08.747Z,13.66
2022-09-12T05:35:08.731Z,13.71
2022-09-12T05:36:08.726Z,13.76
2022-09-12T05:37:08.713Z,13.75
2022-09-12T05:38:08.735Z,13.79
2022-09-12T05:39:08.891Z,13.73
2022-09-12T05:40:08.715Z,13.90
2022-09-12T05:41:09.978Z,13.86
2022-09-12T05:42:08.662Z,13.84
2022-09-12T05:43:08.648Z,13.93
2022-09-12T05:44:08.644Z,13.90
2022-09-12T05:45:08.626Z,13.94
2022-09-12T05:46:08.658Z,13.93
2022-09-12T05:47:08.606Z,13.96
2022-09-12T05:48:08.596Z,13.99
2022-09-12T05:49:08.604Z,13.96
2022-09-12T05:50:08.578Z,14.04
2022-09-12T05:51:08.564Z,14.02
2022-09-12T05:52:08.556Z,14.05
2022-09-12T05:53:08.542Z,14.09
2022-09-12T05:54:08.538Z,14.08
2022-09-12T05:55:08.522Z,14.01
2022-09-12T05:56:08.514Z,14.08
2022-09-12T05:57:08.519Z,14.06
2022-09-12T05:58:08.495Z,14.04
2022-09-12T05:59:08.482Z,14.06
2022-09-12T06:00:08.472Z,14.13
2022-09-12T06:01:08.517Z,14.23
2022-09-12T06:02:08.470Z,14.31
2022-09-12T06:03:08.441Z,14.39
2022-09-12T06:04:08.430Z,14.52
2022-09-12T06:05:08.421Z,14.54
2022-09-12T06:06:08.411Z,14.57
2022-09-12T06:07:08.398Z,14.74
2022-09-12T06:08:08.390Z,14.74
2022-09-12T06:09:08.378Z,14.86
2022-09-12T06:10:08.370Z,14.82
2022-09-12T06:11:08.359Z,15.05
2022-09-12T06:13:08.363Z,15.16
2022-09-12T06:14:08.328Z,15.28
2022-09-12T06:15:08.318Z,15.41
2022-09-12T06:16:08.322Z,15.35
2022-09-12T06:17:08.300Z,15.52
2022-09-12T06:18:08.338Z,15.58
2022-09-12T06:19:08.280Z,15.67
2022-09-12T06:20:08.268Z,15.70
2022-09-12T06:21:08.261Z,15.84
2022-09-12T06:22:08.250Z,15.98
2022-09-12T06:23:08.242Z,16.17
2022-09-12T06:24:08.229Z,16.33
2022-09-12T06:25:08.223Z,16.40
2022-09-12T06:26:08.212Z,16.47
2022-09-12T06:27:08.203Z,16.57
2022-09-12T06:28:08.193Z,16.51
2022-09-12T06:29:08.209Z,16.51
2022-09-12T06:30:08.275Z,16.67
2022-09-12T06:31:08.233Z,16.84
2022-09-12T06:32:08.156Z,16.82
2022-09-12T06:33:08.149Z,16.81
2022-09-12T06:34:08.143Z,16.81
2022-09-12T06:35:08.130Z,16.92
2022-09-12T06:36:12.244Z,16.95
2022-09-12T06:37:08.113Z,17.18
2022-09-12T06:38:08.755Z,17.25
2022-09-12T06:39:08.094Z,17.30
2022-09-12T06:40:08.143Z,17.35
2022-09-12T06:41:08.079Z,17.49
2022-09-12T06:42:08.067Z,17.66
2022-09-12T06:43:08.061Z,17.77
2022-09-12T06:44:08.051Z,17.77
2022-09-12T06:45:08.062Z,17.76
2022-09-12T06:46:08.077Z,17.86
2022-09-12T06:47:08.026Z,17.87
2022-09-12T06:48:08.016Z,17.95
2022-09-12T06:49:08.011Z,17.96
2022-09-12T06:50:08.002Z,17.86
2022-09-12T06:51:07.994Z,17.94
2022-09-12T06:52:07.983Z,17.96
2022-09-12T06:53:07.983Z,17.92
2022-09-12T06:54:07.967Z,17.87
2022-09-12T06:55:07.959Z,17.76
2022-09-12T06:56:07.949Z,17.80
2022-09-12T06:57:07.945Z,17.66
2022-09-12T06:58:07.933Z,17.66
2022-09-12T06:59:07.927Z,17.68
2022-09-12T07:00:07.918Z,17.54
2022-09-12T07:01:08.026Z,17.53
2022-09-12T07:02:07.981Z,17.49
2022-09-12T07:03:07.896Z,17.46
2022-09-12T07:04:07.884Z,17.53
2022-09-12T07:05:07.879Z,17.55
2022-09-12T07:06:07.870Z,17.68
2022-09-12T07:07:07.859Z,17.70
2022-09-12T07:09:08.049Z,17.81
2022-09-12T07:10:07.836Z,17.80
2022-09-12T07:11:07.832Z,17.95
2022-09-12T07:12:07.821Z,17.96
2022-09-12T07:13:07.814Z,17.99
2022-09-12T07:14:07.805Z,18.11
2022-09-12T07:15:07.798Z,18.21
2022-09-12T07:16:07.788Z,18.31
2022-09-12T07:17:07.873Z,18.34
2022-09-12T07:18:07.773Z,18.38
2022-09-12T07:19:07.765Z,18.47
2022-09-12T07:20:07.957Z,18.50
2022-09-12T07:21:07.753Z,18.54
2022-09-12T07:22:07.742Z,18.51
2022-09-12T07:24:07.726Z,18.65
2022-09-12T07:25:07.718Z,18.62
2022-09-12T07:26:07.713Z,18.71
2022-09-12T07:27:07.702Z,18.75
2022-09-12T07:28:07.698Z,18.83
2022-09-12T07:29:34.730Z,18.87
2022-09-12T07:30:07.683Z,18.87
2022-09-12T07:31:07.818Z,18.86
2022-09-12T07:32:07.674Z,18.84
2022-09-12T07:33:07.688Z,18.93
2022-09-12T07:34:07.657Z,18.93
2022-09-12T07:35:07.643Z,18.99
2022-09-12T07:36:07.638Z,18.96
2022-09-12T07:37:07.631Z,19.07
2022-09-12T07:38:07.623Z,19.05
2022-09-12T07:39:07.614Z,18.96
2022-09-12T07:40:07.696Z,19.07
2022-09-12T07:41:07.603Z,19.09
2022-09-12T07:42:07.593Z,19.21
2022-09-12T07:43:07.586Z,19.20
2022-09-12T07:44:07.585Z,19.27
2022-09-12T07:45:07.578Z,19.27
2022-09-12T07:46:07.671Z,19.28
2022-09-12T07:47:07.560Z,19.30
2022-09-12T07:48:07.550Z,19.30
2022-09-12T07:49:08.542Z,19.32
2022-09-12T07:50:07.544Z,19.31
2022-09-12T07:52:07.521Z,19.43
2022-09-12T07:53:07.518Z,19.31
2022-09-12T07:54:07.506Z,19.34
2022-09-12T07:55:07.506Z,19.34
2022-09-12T07:56:07.490Z,19.35
2022-09-12T07:57:07.487Z,19.39
2022-09-12T07:58:07.478Z,19.31
2022-09-12T07:59:07.478Z,19.34
2022-09-12T08:00:07.464Z,19.39
2022-09-12T08:01:07.516Z,19.32
2022-09-12T08:02:07.492Z,19.28
2022-09-12T08:03:07.445Z,19.25
2022-09-12T08:04:07.435Z,19.32
2022-09-12T08:05:07.451Z,19.40
2022-09-12T08:06:07.421Z,19.46
2022-09-12T08:07:07.430Z,19.61
2022-09-12T08:08:07.408Z,19.61
2022-09-12T08:09:07.418Z,19.72
2022-09-12T08:10:07.394Z,19.65
2022-09-12T08:11:07.389Z,19.61
2022-09-12T08:12:07.432Z,19.76
2022-09-12T08:13:07.375Z,19.76
2022-09-12T08:14:07.369Z,19.90
2022-09-12T08:15:07.360Z,19.85
2022-09-12T08:16:07.394Z,19.95
2022-09-12T08:17:07.350Z,19.90
2022-09-12T08:18:07.339Z,20.07
2022-09-12T08:19:07.335Z,19.94
2022-09-12T08:20:07.327Z,19.94
2022-09-12T08:21:07.340Z,19.90
2022-09-12T08:22:07.317Z,19.92
2022-09-12T08:23:07.308Z,19.95
2022-09-12T08:24:07.314Z,20.04
2022-09-12T08:25:07.295Z,19.92
2022-09-12T08:26:07.287Z,20.00
2022-09-12T08:27:07.281Z,20.17
2022-09-12T08:28:07.272Z,20.20
2022-09-12T08:29:07.271Z,20.31
2022-09-12T08:30:07.262Z,20.34
2022-09-12T08:31:07.287Z,20.38
2022-09-12T08:32:07.247Z,20.48
2022-09-12T08:33:07.244Z,20.46
2022-09-12T08:34:07.235Z,20.61
2022-09-12T08:35:07.230Z,20.61
2022-09-12T08:36:07.222Z,20.66
2022-09-12T08:37:07.236Z,20.61
2022-09-12T08:38:07.210Z,20.71
2022-09-12T08:39:07.204Z,20.71
2022-09-12T08:40:07.389Z,20.88
2022-09-12T08:41:07.193Z,20.91
2022-09-12T08:42:07.273Z,20.91
2022-09-12T08:43:07.179Z,21.01
2022-09-12T08:44:07.184Z,20.96
2022-09-12T08:45:07.177Z,20.97
2022-09-12T08:46:07.185Z,20.97
2022-09-12T08:47:07.155Z,21.01
2022-09-12T08:48:07.150Z,21.08
2022-09-12T08:49:07.144Z,21.09
2022-09-12T08:50:07.134Z,21.06
2022-09-12T08:51:07.131Z,21.15
2022-09-12T08:52:07.131Z,21.16
2022-09-12T08:53:07.142Z,21.12
2022-09-12T08:54:07.112Z,21.22
2022-09-12T08:55:07.106Z,21.19
2022-09-12T08:56:07.098Z,21.30
2022-09-12T08:57:07.102Z,21.24
2022-09-12T08:58:07.090Z,21.26
2022-09-12T08:59:07.084Z,21.22
2022-09-12T09:00:07.077Z,21.33
2022-09-12T09:01:07.239Z,21.30
2022-09-12T09:02:07.106Z,21.31
2022-09-12T09:03:07.064Z,21.34
2022-09-12T09:04:07.054Z,21.33
2022-09-12T09:05:07.050Z,21.33
2022-09-12T09:06:07.043Z,21.31
2022-09-12T09:07:07.039Z,21.42
2022-09-12T09:08:07.032Z,21.40
2022-09-12T09:09:07.049Z,21.52
2022-09-12T09:10:07.022Z,21.63
2022-09-12T09:11:07.019Z,21.66
2022-09-12T09:12:07.010Z,21.77
2022-09-12T09:13:07.007Z,21.89
2022-09-12T09:14:06.999Z,21.96
2022-09-12T09:15:06.993Z,21.96
2022-09-12T09:16:07.094Z,22.11
2022-09-12T09:17:06.986Z,22.24
2022-09-12T09:18:06.978Z,22.30
2022-09-12T09:19:06.972Z,22.38
2022-09-12T09:20:07.066Z,22.48
2022-09-12T09:21:06.963Z,22.44
2022-09-12T09:22:06.956Z,22.38
2022-09-12T09:23:06.953Z,22.45
2022-09-12T09:24:06.945Z,22.48
2022-09-12T09:25:06.962Z,22.45
2022-09-12T09:26:06.935Z,22.48
2022-09-12T09:27:23.557Z,22.44
2022-09-12T09:28:06.925Z,22.54
2022-09-12T09:29:06.922Z,22.49
2022-09-12T09:30:06.915Z,22.46
2022-09-12T09:31:07.034Z,22.42
2022-09-12T09:32:06.905Z,22.42
2022-09-12T09:33:06.903Z,22.26
2022-09-12T09:34:06.897Z,22.14
2022-09-12T09:35:06.894Z,22.20
2022-09-12T09:36:06.887Z,22.24
2022-09-12T09:37:06.885Z,22.20
2022-09-12T09:38:06.877Z,22.17
2022-09-12T09:39:06.874Z,22.26
2022-09-12T09:40:07.015Z,22.24
2022-09-12T09:41:06.882Z,22.23
2022-09-12T09:42:06.857Z,22.30
2022-09-12T09:43:06.875Z,22.39
2022-09-12T09:45:06.845Z,22.52
2022-09-12T09:46:06.899Z,22.64
2022-09-12T09:47:06.834Z,22.69
2022-09-12T09:48:06.829Z,22.76
2022-09-12T09:49:06.827Z,22.86
2022-09-12T09:50:06.821Z,22.96
2022-09-12T09:51:06.817Z,22.96
2022-09-12T09:52:06.811Z,23.03
2022-09-12T09:53:06.807Z,23.11
2022-09-12T09:54:06.802Z,23.18
2022-09-12T09:55:06.797Z,23.22
2022-09-12T09:56:06.791Z,23.16
2022-09-12T09:57:06.833Z,23.23
2022-09-12T09:58:06.785Z,23.29
2022-09-12T09:59:06.782Z,23.32
2022-09-12T10:00:06.775Z,23.44
2022-09-12T10:01:06.840Z,23.53
2022-09-12T10:02:06.786Z,23.57
2022-09-12T10:03:10.184Z,23.53
2022-09-12T10:04:06.758Z,23.49
2022-09-12T10:05:06.759Z,23.47
2022-09-12T10:06:06.752Z,23.52
2022-09-12T10:07:06.749Z,23.49
2022-09-12T10:08:06.754Z,23.49
2022-09-12T10:09:06.741Z,23.50
2022-09-12T10:10:06.734Z,23.47
2022-09-12T10:11:06.736Z,23.59
2022-09-12T10:12:06.726Z,23.53
2022-09-12T10:13:06.751Z,23.53
2022-09-12T10:14:06.720Z,23.54
2022-09-12T10:15:06.768Z,23.64
2022-09-12T10:16:06.822Z,23.54
2022-09-12T10:17:06.707Z,23.82
2022-09-12T10:18:06.705Z,23.71
2022-09-12T10:19:06.701Z,23.75
2022-09-12T10:20:22.378Z,23.75
2022-09-12T10:21:06.695Z,23.86
2022-09-12T10:22:06.687Z,23.87
2022-09-12T10:23:06.686Z,23.87
2022-09-12T10:24:06.679Z,23.86
2022-09-12T10:25:06.678Z,23.99
2022-09-12T10:26:06.675Z,23.97
2022-09-12T10:27:06.670Z,23.71
2022-09-12T10:28:06.666Z,23.63
2022-09-12T10:29:06.682Z,23.62
2022-09-12T10:30:06.661Z,23.69
2022-09-12T10:31:06.857Z,23.77
2022-09-12T10:32:06.651Z,23.71
2022-09-12T10:33:06.650Z,23.74
2022-09-12T10:34:06.644Z,23.78
2022-09-12T10:35:06.644Z,23.79
2022-09-12T10:36:06.636Z,23.75
2022-09-12T10:37:06.635Z,23.96
2022-09-12T10:38:06.630Z,24.05
2022-09-12T10:39:06.627Z,24.11
2022-09-12T10:40:06.691Z,24.15
2022-09-12T10:41:06.626Z,24.19
2022-09-12T10:42:06.615Z,24.12
2022-09-12T10:43:06.612Z,24.16
2022-09-12T10:44:06.610Z,24.12
2022-09-12T10:45:06.627Z,24.19
2022-09-12T10:46:06.657Z,24.19
2022-09-12T10:47:06.599Z,24.30
2022-09-12T10:48:07.775Z,24.33
2022-09-12T10:49:06.591Z,24.33
2022-09-12T10:50:06.587Z,24.39
2022-09-12T10:51:06.583Z,24.29
2022-09-12T10:52:06.579Z,24.39
2022-09-12T10:53:06.578Z,24.36
2022-09-12T10:54:06.575Z,24.31
2022-09-12T10:55:06.570Z,24.44
2022-09-12T10:56:06.565Z,24.42
2022-09-12T10:57:06.566Z,24.37
2022-09-12T10:58:06.560Z,24.39
2022-09-12T10:59:06.558Z,24.41
2022-09-12T11:00:06.554Z,24.49
2022-09-12T11:01:06.630Z,24.49
2022-09-12T11:02:06.589Z,24.59
2022-09-12T11:03:06.548Z,24.61
2022-09-12T11:04:06.544Z,24.55
2022-09-12T11:05:06.540Z,24.61
2022-09-12T11:06:06.534Z,24.59
2022-09-12T11:07:06.533Z,24.61
2022-09-12T11:08:06.529Z,24.59
2022-09-12T11:09:06.527Z,24.56
2022-09-12T11:10:06.524Z,24.61
2022-09-12T11:11:06.524Z,24.67
2022-09-12T11:12:06.520Z,24.66
2022-09-12T11:13:06.514Z,24.68
2022-09-12T11:14:06.509Z,24.87
2022-09-12T11:15:06.507Z,24.92
2022-09-12T11:16:06.567Z,24.83
2022-09-12T11:17:08.840Z,24.93
2022-09-12T11:18:06.497Z,24.90
2022-09-12T11:19:06.496Z,25.01
2022-09-12T11:20:06.489Z,25.01
2022-09-12T11:21:06.489Z,25.14
2022-09-12T11:22:06.486Z,25.22
2022-09-12T11:23:06.483Z,25.29
2022-09-12T11:24:06.479Z,25.23
2022-09-12T11:25:06.493Z,25.30
2022-09-12T11:26:06.476Z,25.29
2022-09-12T11:27:06.470Z,25.27
2022-09-12T11:28:06.469Z,25.11
2022-09-12T11:29:06.464Z,25.14
2022-09-12T11:30:06.463Z,24.90
2022-09-12T11:31:06.517Z,24.84
2022-09-12T11:32:06.459Z,24.97
2022-09-12T11:33:06.489Z,24.99
2022-09-12T11:34:06.453Z,25.04
2022-09-12T11:35:06.449Z,25.04
2022-09-12T11:36:06.446Z,25.07
2022-09-12T11:37:10.307Z,25.07
2022-09-12T11:38:06.442Z,25.35
2022-09-12T11:39:06.436Z,25.35
2022-09-12T11:40:06.545Z,25.41
2022-09-12T11:41:06.433Z,25.46
2022-09-12T11:42:06.430Z,25.56
2022-09-12T11:43:06.426Z,25.53
2022-09-12T11:44:06.424Z,25.64
2022-09-12T11:45:06.422Z,25.69
2022-09-12T11:46:06.476Z,25.69
2022-09-12T11:47:06.414Z,25.74
2022-09-12T11:48:06.470Z,25.86
2022-09-12T11:49:06.427Z,25.90
2022-09-12T11:50:06.425Z,25.82
2022-09-12T11:51:06.416Z,25.89
2022-09-12T11:52:06.404Z,25.74
2022-09-12T11:53:06.400Z,25.78
2022-09-12T11:54:06.402Z,25.83
2022-09-12T11:55:06.393Z,25.75
2022-09-12T11:56:06.394Z,25.85
2022-09-12T11:57:06.389Z,25.81
2022-09-12T11:58:06.400Z,25.89
2022-09-12T11:59:06.385Z,25.97
2022-09-12T12:00:06.384Z,25.89
2022-09-12T12:01:06.381Z,25.91
2022-09-12T12:02:06.475Z,25.96
2022-09-12T12:03:06.375Z,26.01
2022-09-12T12:04:06.379Z,25.93
2022-09-12T12:05:06.419Z,26.03
2022-09-12T12:06:06.378Z,25.94
2022-09-12T12:07:06.380Z,26.04
2022-09-12T12:08:06.366Z,26.01
2022-09-12T12:09:06.363Z,25.96
2022-09-12T12:10:06.362Z,25.96
2022-09-12T12:11:06.358Z,25.91
2022-09-12T12:12:06.362Z,25.76
2022-09-12T12:13:08.734Z,25.75
2022-09-12T12:14:06.355Z,25.79
2022-09-12T12:15:06.350Z,25.79
2022-09-12T12:16:06.402Z,25.81
2022-09-12T12:17:06.346Z,25.89
2022-09-12T12:18:06.348Z,25.81
2022-09-12T12:19:10.481Z,25.96
2022-09-12T12:20:08.706Z,25.94
2022-09-12T12:21:06.356Z,25.72
2022-09-12T12:22:06.337Z,25.71
2022-09-12T12:23:06.331Z,25.64
2022-09-12T12:24:06.332Z,25.56
2022-09-12T12:25:06.329Z,25.64
2022-09-12T12:26:06.338Z,25.76
2022-09-12T12:27:06.326Z,25.76
2022-09-12T12:28:06.322Z,25.66
2022-09-12T12:29:06.320Z,25.86
2022-09-12T12:30:06.319Z,25.71
2022-09-12T12:31:06.380Z,25.64
2022-09-12T12:32:06.315Z,25.69
2022-09-12T12:33:06.312Z,25.72
2022-09-12T12:34:06.320Z,25.72
2022-09-12T12:35:06.306Z,25.85
2022-09-12T12:36:06.306Z,25.82
2022-09-12T12:37:07.421Z,25.86
2022-09-12T12:38:06.302Z,25.89
2022-09-12T12:39:06.297Z,25.94
2022-09-12T12:40:06.390Z,26.08
2022-09-12T12:41:06.293Z,26.20
2022-09-12T12:42:06.295Z,26.24
2022-09-12T12:43:06.288Z,26.34
2022-09-12T12:44:06.289Z,26.38
2022-09-12T12:45:06.284Z,26.39
2022-09-12T12:46:06.369Z,26.35
2022-09-12T12:47:06.280Z,26.38
2022-09-12T12:48:08.185Z,26.41
2022-09-12T12:49:06.278Z,26.36
2022-09-12T12:50:39.487Z,26.41
2022-09-12T12:52:06.273Z,26.36
2022-09-12T12:53:06.300Z,26.34
2022-09-12T12:54:09.776Z,26.34
2022-09-12T12:55:06.265Z,26.47
2022-09-12T12:56:06.265Z,26.49
2022-09-12T12:57:06.261Z,26.53
2022-09-12T12:58:06.262Z,26.60
2022-09-12T12:59:06.256Z,26.64
2022-09-12T13:00:06.276Z,26.59
2022-09-12T13:01:06.254Z,26.65
2022-09-12T13:02:06.294Z,26.71